sensor_id;sensor_type;location;lat;lon;timestamp;temperature;humidity
1351;DHT22;669;50.206;9.998;2023-06-14T00:01:03;15.20;29.70
1351;DHT22;669;50.206;9.998;2023-06-14T00:03:34;15.10;30.00
1351;DHT22;669;50.206;9.998;2023-06-14T00:06:02;15.00;30.40
1351;DHT22;669;50.206;9.998;2023-06-14T00:08:30;14.90;30.60
1351;DHT22;669;50.206;9.998;2023-06-14T00:10:58;14.90;30.60
1351;DHT22;669;50.206;9.998;2023-06-14T00:13:26;14.80;31.00
1351;DHT22;669;50.206;9.998;2023-06-14T00:15:54;14.80;30.90
1351;DHT22;669;50.206;9.998;2023-06-14T00:18:23;14.70;31.50
1351;DHT22;669;50.206;9.998;2023-06-14T00:20:53;14.60;31.90
1351;DHT22;669;50.206;9.998;2023-06-14T00:23:21;14.60;31.70
1351;DHT22;669;50.206;9.998;2023-06-14T00:25:49;14.50;32.00
1351;DHT22;669;50.206;9.998;2023-06-14T00:28:17;14.50;32.00
1351;DHT22;669;50.206;9.998;2023-06-14T00:30:45;14.50;32.30
1351;DHT22;669;50.206;9.998;2023-06-14T00:33:13;14.40;32.00
1351;DHT22;669;50.206;9.998;2023-06-14T00:35:41;14.40;32.30
1351;DHT22;669;50.206;9.998;2023-06-14T00:38:11;14.40;32.80
1351;DHT22;669;50.206;9.998;2023-06-14T00:40:39;14.50;32.70
1351;DHT22;669;50.206;9.998;2023-06-14T00:43:07;14.40;34.70
1351;DHT22;669;50.206;9.998;2023-06-14T00:45:34;14.20;35.20
1351;DHT22;669;50.206;9.998;2023-06-14T00:48:03;13.90;37.10
1351;DHT22;669;50.206;9.998;2023-06-14T00:50:33;13.60;37.10
1351;DHT22;669;50.206;9.998;2023-06-14T00:53:01;13.50;38.30
1351;DHT22;669;50.206;9.998;2023-06-14T00:55:31;13.30;38.80
1351;DHT22;669;50.206;9.998;2023-06-14T00:57:59;13.10;40.50
1351;DHT22;669;50.206;9.998;2023-06-14T01:00:27;13.00;40.60
1351;DHT22;669;50.206;9.998;2023-06-14T01:02:56;13.00;40.80
1351;DHT22;669;50.206;9.998;2023-06-14T01:05:24;12.90;40.10
1351;DHT22;669;50.206;9.998;2023-06-14T01:08:04;12.90;39.10
1351;DHT22;669;50.206;9.998;2023-06-14T01:10:47;12.80;40.60
1351;DHT22;669;50.206;9.998;2023-06-14T01:13:21;12.70;41.60
1351;DHT22;669;50.206;9.998;2023-06-14T01:15:52;12.70;42.80
1351;DHT22;669;50.206;9.998;2023-06-14T01:18:20;12.70;44.20
1351;DHT22;669;50.206;9.998;2023-06-14T01:20:52;12.70;43.40
1351;DHT22;669;50.206;9.998;2023-06-14T01:23:23;12.80;41.80
1351;DHT22;669;50.206;9.998;2023-06-14T01:25:52;12.90;40.90
1351;DHT22;669;50.206;9.998;2023-06-14T01:28:21;13.10;39.90
1351;DHT22;669;50.206;9.998;2023-06-14T01:30:51;12.80;41.40
1351;DHT22;669;50.206;9.998;2023-06-14T01:33:21;12.50;42.00
1351;DHT22;669;50.206;9.998;2023-06-14T01:35:51;12.30;45.60
1351;DHT22;669;50.206;9.998;2023-06-14T01:38:21;12.30;44.70
1351;DHT22;669;50.206;9.998;2023-06-14T01:40:52;12.40;43.80
1351;DHT22;669;50.206;9.998;2023-06-14T01:43:22;12.50;43.70
1351;DHT22;669;50.206;9.998;2023-06-14T01:45:51;12.50;43.30
1351;DHT22;669;50.206;9.998;2023-06-14T01:48:22;12.50;43.20
1351;DHT22;669;50.206;9.998;2023-06-14T01:50:50;12.50;43.30
1351;DHT22;669;50.206;9.998;2023-06-14T01:53:19;12.50;43.50
1351;DHT22;669;50.206;9.998;2023-06-14T01:55:47;12.50;42.80
1351;DHT22;669;50.206;9.998;2023-06-14T01:58:17;12.50;43.20
1351;DHT22;669;50.206;9.998;2023-06-14T02:00:45;12.40;44.30
1351;DHT22;669;50.206;9.998;2023-06-14T02:03:14;12.40;43.30
1351;DHT22;669;50.206;9.998;2023-06-14T02:05:43;12.50;43.20
1351;DHT22;669;50.206;9.998;2023-06-14T02:08:11;12.40;43.10
1351;DHT22;669;50.206;9.998;2023-06-14T02:10:39;12.50;43.20
1351;DHT22;669;50.206;9.998;2023-06-14T02:13:06;12.50;42.10
1351;DHT22;669;50.206;9.998;2023-06-14T02:15:36;12.40;43.10
1351;DHT22;669;50.206;9.998;2023-06-14T02:18:04;12.40;43.20
1351;DHT22;669;50.206;9.998;2023-06-14T02:20:32;12.30;43.00
1351;DHT22;669;50.206;9.998;2023-06-14T02:23:00;12.30;42.60
1351;DHT22;669;50.206;9.998;2023-06-14T02:25:28;12.00;44.30
1351;DHT22;669;50.206;9.998;2023-06-14T02:27:56;11.90;45.80
1351;DHT22;669;50.206;9.998;2023-06-14T02:30:24;11.90;46.50
1351;DHT22;669;50.206;9.998;2023-06-14T02:32:53;11.80;46.80
1351;DHT22;669;50.206;9.998;2023-06-14T02:35:22;11.80;50.60
1351;DHT22;669;50.206;9.998;2023-06-14T02:37:53;11.80;50.50
1351;DHT22;669;50.206;9.998;2023-06-14T02:40:22;11.90;50.00
1351;DHT22;669;50.206;9.998;2023-06-14T02:42:50;11.90;49.20
1351;DHT22;669;50.206;9.998;2023-06-14T02:45:18;11.90;48.60
1351;DHT22;669;50.206;9.998;2023-06-14T02:47:47;11.90;48.10
1351;DHT22;669;50.206;9.998;2023-06-14T02:50:17;11.90;48.10
1351;DHT22;669;50.206;9.998;2023-06-14T02:52:45;11.90;48.00
1351;DHT22;669;50.206;9.998;2023-06-14T02:55:13;12.00;47.50
1351;DHT22;669;50.206;9.998;2023-06-14T02:57:41;12.00;47.50
1351;DHT22;669;50.206;9.998;2023-06-14T03:00:10;12.00;46.70
1351;DHT22;669;50.206;9.998;2023-06-14T03:02:40;12.00;46.40
1351;DHT22;669;50.206;9.998;2023-06-14T03:05:10;12.10;46.30
1351;DHT22;669;50.206;9.998;2023-06-14T03:07:39;12.10;45.70
1351;DHT22;669;50.206;9.998;2023-06-14T03:10:08;12.10;45.40
1351;DHT22;669;50.206;9.998;2023-06-14T03:12:36;12.10;45.20
1351;DHT22;669;50.206;9.998;2023-06-14T03:15:05;12.10;45.50
1351;DHT22;669;50.206;9.998;2023-06-14T03:17:33;12.10;46.20
1351;DHT22;669;50.206;9.998;2023-06-14T03:20:02;12.00;46.70
1351;DHT22;669;50.206;9.998;2023-06-14T03:22:32;12.00;46.40
1351;DHT22;669;50.206;9.998;2023-06-14T03:25:02;11.90;46.90
1351;DHT22;669;50.206;9.998;2023-06-14T03:27:31;11.80;49.10
1351;DHT22;669;50.206;9.998;2023-06-14T03:29:59;11.70;48.80
1351;DHT22;669;50.206;9.998;2023-06-14T03:32:27;11.70;49.10
1351;DHT22;669;50.206;9.998;2023-06-14T03:34:55;11.70;49.90
1351;DHT22;669;50.206;9.998;2023-06-14T03:37:23;11.80;49.40
1351;DHT22;669;50.206;9.998;2023-06-14T03:39:56;11.80;48.60
1351;DHT22;669;50.206;9.998;2023-06-14T03:42:26;11.90;48.10
1351;DHT22;669;50.206;9.998;2023-06-14T03:44:54;12.00;47.50
1351;DHT22;669;50.206;9.998;2023-06-14T03:47:22;12.10;46.90
1351;DHT22;669;50.206;9.998;2023-06-14T03:49:50;12.20;46.50
1351;DHT22;669;50.206;9.998;2023-06-14T03:52:18;12.30;46.20
1351;DHT22;669;50.206;9.998;2023-06-14T03:54:46;12.40;46.40
1351;DHT22;669;50.206;9.998;2023-06-14T03:57:17;12.50;46.10
1351;DHT22;669;50.206;9.998;2023-06-14T03:59:46;12.60;45.80
1351;DHT22;669;50.206;9.998;2023-06-14T04:02:14;12.70;45.80
1351;DHT22;669;50.206;9.998;2023-06-14T04:04:42;12.80;45.90
1351;DHT22;669;50.206;9.998;2023-06-14T04:07:12;12.90;45.50
1351;DHT22;669;50.206;9.998;2023-06-14T04:09:40;13.00;46.20
1351;DHT22;669;50.206;9.998;2023-06-14T04:12:09;13.10;45.70
1351;DHT22;669;50.206;9.998;2023-06-14T04:14:38;13.20;45.20
1351;DHT22;669;50.206;9.998;2023-06-14T04:17:08;13.30;44.20
1351;DHT22;669;50.206;9.998;2023-06-14T04:19:36;13.40;44.10
1351;DHT22;669;50.206;9.998;2023-06-14T04:22:05;13.60;43.10
1351;DHT22;669;50.206;9.998;2023-06-14T04:24:33;13.70;42.90
1351;DHT22;669;50.206;9.998;2023-06-14T04:27:02;13.80;42.70
1351;DHT22;669;50.206;9.998;2023-06-14T04:29:30;14.00;41.60
1351;DHT22;669;50.206;9.998;2023-06-14T04:31:58;14.10;41.20
1351;DHT22;669;50.206;9.998;2023-06-14T04:34:28;14.30;41.20
1351;DHT22;669;50.206;9.998;2023-06-14T04:36:58;14.50;40.70
1351;DHT22;669;50.206;9.998;2023-06-14T04:39:27;14.60;40.10
1351;DHT22;669;50.206;9.998;2023-06-14T04:41:55;14.80;39.50
1351;DHT22;669;50.206;9.998;2023-06-14T04:44:27;14.90;38.30
1351;DHT22;669;50.206;9.998;2023-06-14T04:46:58;15.00;37.80
1351;DHT22;669;50.206;9.998;2023-06-14T04:49:28;15.20;38.20
1351;DHT22;669;50.206;9.998;2023-06-14T04:51:57;15.30;37.70
1351;DHT22;669;50.206;9.998;2023-06-14T04:54:26;15.50;36.30
1351;DHT22;669;50.206;9.998;2023-06-14T04:56:54;15.50;35.50
1351;DHT22;669;50.206;9.998;2023-06-14T04:59:22;15.70;34.50
1351;DHT22;669;50.206;9.998;2023-06-14T05:01:50;15.90;35.30
1351;DHT22;669;50.206;9.998;2023-06-14T05:04:20;16.10;33.10
1351;DHT22;669;50.206;9.998;2023-06-14T05:06:50;16.20;33.30
1351;DHT22;669;50.206;9.998;2023-06-14T05:09:21;16.30;32.50
1351;DHT22;669;50.206;9.998;2023-06-14T05:11:49;16.50;32.20
1351;DHT22;669;50.206;9.998;2023-06-14T05:14:17;16.80;31.70
1351;DHT22;669;50.206;9.998;2023-06-14T05:16:45;17.10;30.10
1351;DHT22;669;50.206;9.998;2023-06-14T05:19:15;17.30;29.80
1351;DHT22;669;50.206;9.998;2023-06-14T05:21:45;17.50;29.80
1351;DHT22;669;50.206;9.998;2023-06-14T05:24:15;17.70;28.90
1351;DHT22;669;50.206;9.998;2023-06-14T05:26:44;17.80;28.90
1351;DHT22;669;50.206;9.998;2023-06-14T05:29:13;17.90;28.10
1351;DHT22;669;50.206;9.998;2023-06-14T05:31:41;18.10;28.00
1351;DHT22;669;50.206;9.998;2023-06-14T05:34:09;18.20;29.10
1351;DHT22;669;50.206;9.998;2023-06-14T05:36:37;18.30;27.60
1351;DHT22;669;50.206;9.998;2023-06-14T05:39:05;18.40;28.00
1351;DHT22;669;50.206;9.998;2023-06-14T05:41:34;18.40;27.50
1351;DHT22;669;50.206;9.998;2023-06-14T05:44:03;18.30;27.80
1351;DHT22;669;50.206;9.998;2023-06-14T05:46:30;18.50;27.90
1351;DHT22;669;50.206;9.998;2023-06-14T05:48:58;18.70;28.40
1351;DHT22;669;50.206;9.998;2023-06-14T05:51:26;18.70;26.20
1351;DHT22;669;50.206;9.998;2023-06-14T05:53:54;18.80;28.20
1351;DHT22;669;50.206;9.998;2023-06-14T05:56:22;19.00;26.20
1351;DHT22;669;50.206;9.998;2023-06-14T05:58:52;19.30;26.70
1351;DHT22;669;50.206;9.998;2023-06-14T06:01:20;19.40;26.80
1351;DHT22;669;50.206;9.998;2023-06-14T06:03:48;19.40;26.00
1351;DHT22;669;50.206;9.998;2023-06-14T06:06:16;19.40;26.20
1351;DHT22;669;50.206;9.998;2023-06-14T06:08:44;19.60;27.10
1351;DHT22;669;50.206;9.998;2023-06-14T06:11:12;19.50;26.20
1351;DHT22;669;50.206;9.998;2023-06-14T06:13:40;19.50;25.30
1351;DHT22;669;50.206;9.998;2023-06-14T06:16:09;19.60;25.90
1351;DHT22;669;50.206;9.998;2023-06-14T06:18:37;19.50;25.00
1351;DHT22;669;50.206;9.998;2023-06-14T06:21:06;19.70;26.70
1351;DHT22;669;50.206;9.998;2023-06-14T06:23:34;19.70;26.20
1351;DHT22;669;50.206;9.998;2023-06-14T06:26:02;19.70;26.10
1351;DHT22;669;50.206;9.998;2023-06-14T06:28:31;19.60;25.70
1351;DHT22;669;50.206;9.998;2023-06-14T06:30:58;19.80;26.00
1351;DHT22;669;50.206;9.998;2023-06-14T06:33:32;20.20;26.00
1351;DHT22;669;50.206;9.998;2023-06-14T06:35:59;20.30;24.10
1351;DHT22;669;50.206;9.998;2023-06-14T06:38:27;20.30;24.70
1351;DHT22;669;50.206;9.998;2023-06-14T06:40:55;20.10;24.30
1351;DHT22;669;50.206;9.998;2023-06-14T06:43:24;20.30;24.10
1351;DHT22;669;50.206;9.998;2023-06-14T06:45:52;20.00;24.40
1351;DHT22;669;50.206;9.998;2023-06-14T06:48:20;20.10;25.20
1351;DHT22;669;50.206;9.998;2023-06-14T06:50:49;20.00;23.10
1351;DHT22;669;50.206;9.998;2023-06-14T06:53:17;20.00;25.70
1351;DHT22;669;50.206;9.998;2023-06-14T06:56:00;20.10;24.80
1351;DHT22;669;50.206;9.998;2023-06-14T06:58:28;20.00;25.50
1351;DHT22;669;50.206;9.998;2023-06-14T07:00:56;20.20;24.70
1351;DHT22;669;50.206;9.998;2023-06-14T07:03:24;20.20;25.10
1351;DHT22;669;50.206;9.998;2023-06-14T07:05:53;20.00;25.00
1351;DHT22;669;50.206;9.998;2023-06-14T07:08:21;20.10;25.60
1351;DHT22;669;50.206;9.998;2023-06-14T07:10:49;20.30;25.60
1351;DHT22;669;50.206;9.998;2023-06-14T07:13:17;20.50;27.70
1351;DHT22;669;50.206;9.998;2023-06-14T07:15:46;20.50;24.20
1351;DHT22;669;50.206;9.998;2023-06-14T07:18:14;20.80;23.60
1351;DHT22;669;50.206;9.998;2023-06-14T07:20:42;21.10;23.30
1351;DHT22;669;50.206;9.998;2023-06-14T07:23:12;20.90;23.10
1351;DHT22;669;50.206;9.998;2023-06-14T07:25:39;20.90;24.80
1351;DHT22;669;50.206;9.998;2023-06-14T07:28:07;21.00;24.10
1351;DHT22;669;50.206;9.998;2023-06-14T07:30:35;21.10;22.60
1351;DHT22;669;50.206;9.998;2023-06-14T07:33:03;21.00;27.60
1351;DHT22;669;50.206;9.998;2023-06-14T07:35:32;21.30;23.80
1351;DHT22;669;50.206;9.998;2023-06-14T07:38:00;21.40;22.70
1351;DHT22;669;50.206;9.998;2023-06-14T07:40:29;21.40;25.00
1351;DHT22;669;50.206;9.998;2023-06-14T07:42:57;21.80;23.70
1351;DHT22;669;50.206;9.998;2023-06-14T07:45:25;22.00;23.20
1351;DHT22;669;50.206;9.998;2023-06-14T07:47:53;21.80;21.60
1351;DHT22;669;50.206;9.998;2023-06-14T07:50:22;21.60;22.00
1351;DHT22;669;50.206;9.998;2023-06-14T07:52:50;21.30;23.40
1351;DHT22;669;50.206;9.998;2023-06-14T07:55:18;21.50;23.50
1351;DHT22;669;50.206;9.998;2023-06-14T07:57:47;21.70;22.60
1351;DHT22;669;50.206;9.998;2023-06-14T08:00:15;22.20;23.10
1351;DHT22;669;50.206;9.998;2023-06-14T08:02:45;22.40;21.20
1351;DHT22;669;50.206;9.998;2023-06-14T08:05:13;22.60;21.60
1351;DHT22;669;50.206;9.998;2023-06-14T08:07:41;22.70;20.50
1351;DHT22;669;50.206;9.998;2023-06-14T08:10:09;22.90;21.00
1351;DHT22;669;50.206;9.998;2023-06-14T08:12:37;23.00;21.30
1351;DHT22;669;50.206;9.998;2023-06-14T08:15:07;23.00;23.10
1351;DHT22;669;50.206;9.998;2023-06-14T08:17:42;23.00;22.50
1351;DHT22;669;50.206;9.998;2023-06-14T08:20:11;23.30;22.60
1351;DHT22;669;50.206;9.998;2023-06-14T08:22:40;23.40;22.60
1351;DHT22;669;50.206;9.998;2023-06-14T08:25:09;23.60;19.60
1351;DHT22;669;50.206;9.998;2023-06-14T08:27:37;23.40;20.80
1351;DHT22;669;50.206;9.998;2023-06-14T08:30:08;23.30;18.70
1351;DHT22;669;50.206;9.998;2023-06-14T08:32:36;23.40;19.90
1351;DHT22;669;50.206;9.998;2023-06-14T08:35:05;23.50;20.40
1351;DHT22;669;50.206;9.998;2023-06-14T08:37:38;23.50;20.70
1351;DHT22;669;50.206;9.998;2023-06-14T08:40:17;23.70;20.30
1351;DHT22;669;50.206;9.998;2023-06-14T08:42:48;23.80;20.00
1351;DHT22;669;50.206;9.998;2023-06-14T08:45:19;23.90;19.30
1351;DHT22;669;50.206;9.998;2023-06-14T08:47:52;24.10;20.10
1351;DHT22;669;50.206;9.998;2023-06-14T08:50:25;24.50;18.60
1351;DHT22;669;50.206;9.998;2023-06-14T08:52:59;24.40;17.80
1351;DHT22;669;50.206;9.998;2023-06-14T08:55:29;24.20;19.90
1351;DHT22;669;50.206;9.998;2023-06-14T08:58:02;24.40;18.90
1351;DHT22;669;50.206;9.998;2023-06-14T09:00:32;24.30;18.40
1351;DHT22;669;50.206;9.998;2023-06-14T09:03:01;24.20;19.50
1351;DHT22;669;50.206;9.998;2023-06-14T09:05:30;24.20;20.10
1351;DHT22;669;50.206;9.998;2023-06-14T09:07:58;24.50;19.60
1351;DHT22;669;50.206;9.998;2023-06-14T09:10:32;24.70;17.70
1351;DHT22;669;50.206;9.998;2023-06-14T09:13:01;24.50;17.50
1351;DHT22;669;50.206;9.998;2023-06-14T09:15:30;23.90;19.30
1351;DHT22;669;50.206;9.998;2023-06-14T09:18:01;23.80;20.30
1351;DHT22;669;50.206;9.998;2023-06-14T09:20:30;24.40;20.80
1351;DHT22;669;50.206;9.998;2023-06-14T09:22:58;24.20;18.70
1351;DHT22;669;50.206;9.998;2023-06-14T09:25:27;23.70;21.10
1351;DHT22;669;50.206;9.998;2023-06-14T09:28:07;23.10;19.90
1351;DHT22;669;50.206;9.998;2023-06-14T09:30:36;23.00;20.90
1351;DHT22;669;50.206;9.998;2023-06-14T09:33:06;23.20;20.70
1351;DHT22;669;50.206;9.998;2023-06-14T09:35:35;23.60;19.90
1351;DHT22;669;50.206;9.998;2023-06-14T09:38:03;24.30;18.60
1351;DHT22;669;50.206;9.998;2023-06-14T09:40:34;25.10;19.10
1351;DHT22;669;50.206;9.998;2023-06-14T09:43:06;25.70;17.40
1351;DHT22;669;50.206;9.998;2023-06-14T09:45:38;25.50;17.00
1351;DHT22;669;50.206;9.998;2023-06-14T09:48:08;24.70;16.50
1351;DHT22;669;50.206;9.998;2023-06-14T09:50:36;24.30;17.90
1351;DHT22;669;50.206;9.998;2023-06-14T09:53:06;24.00;18.40
1351;DHT22;669;50.206;9.998;2023-06-14T09:55:36;23.70;19.10
1351;DHT22;669;50.206;9.998;2023-06-14T09:58:06;23.80;20.20
1351;DHT22;669;50.206;9.998;2023-06-14T10:00:36;23.90;17.50
1351;DHT22;669;50.206;9.998;2023-06-14T10:03:09;24.40;17.80
1351;DHT22;669;50.206;9.998;2023-06-14T10:05:41;24.80;17.00
1351;DHT22;669;50.206;9.998;2023-06-14T10:08:11;25.20;19.90
1351;DHT22;669;50.206;9.998;2023-06-14T10:10:40;25.10;17.00
1351;DHT22;669;50.206;9.998;2023-06-14T10:13:08;25.30;18.10
1351;DHT22;669;50.206;9.998;2023-06-14T10:15:42;25.60;18.20
1351;DHT22;669;50.206;9.998;2023-06-14T10:18:19;26.10;19.90
1351;DHT22;669;50.206;9.998;2023-06-14T10:20:55;26.60;16.50
1351;DHT22;669;50.206;9.998;2023-06-14T10:23:26;26.50;15.10
1351;DHT22;669;50.206;9.998;2023-06-14T10:25:57;26.60;18.60
1351;DHT22;669;50.206;9.998;2023-06-14T10:28:26;26.30;13.80
1351;DHT22;669;50.206;9.998;2023-06-14T10:31:07;26.00;16.20
1351;DHT22;669;50.206;9.998;2023-06-14T10:33:41;26.20;16.40
1351;DHT22;669;50.206;9.998;2023-06-14T10:36:28;26.20;15.70
1351;DHT22;669;50.206;9.998;2023-06-14T10:39:04;26.10;15.90
1351;DHT22;669;50.206;9.998;2023-06-14T10:41:36;25.80;16.10
1351;DHT22;669;50.206;9.998;2023-06-14T10:44:38;25.10;16.80
1351;DHT22;669;50.206;9.998;2023-06-14T10:47:08;25.30;16.20
1351;DHT22;669;50.206;9.998;2023-06-14T10:49:42;25.50;15.40
1351;DHT22;669;50.206;9.998;2023-06-14T10:52:13;25.10;15.80
1351;DHT22;669;50.206;9.998;2023-06-14T10:55:04;25.00;15.80
1351;DHT22;669;50.206;9.998;2023-06-14T10:57:33;24.50;16.80
1351;DHT22;669;50.206;9.998;2023-06-14T11:00:16;24.00;19.10
1351;DHT22;669;50.206;9.998;2023-06-14T11:06:00;24.50;16.80
1351;DHT22;669;50.206;9.998;2023-06-14T11:09:06;24.50;14.50
1351;DHT22;669;50.206;9.998;2023-06-14T11:11:42;24.00;15.00
1351;DHT22;669;50.206;9.998;2023-06-14T11:14:10;23.80;17.40
1351;DHT22;669;50.206;9.998;2023-06-14T11:16:38;23.60;18.30
1351;DHT22;669;50.206;9.998;2023-06-14T11:19:06;23.40;16.70
1351;DHT22;669;50.206;9.998;2023-06-14T11:21:40;24.00;19.10
1351;DHT22;669;50.206;9.998;2023-06-14T11:24:10;24.70;18.00
1351;DHT22;669;50.206;9.998;2023-06-14T11:26:39;25.20;18.30
1351;DHT22;669;50.206;9.998;2023-06-14T11:29:07;25.30;16.30
1351;DHT22;669;50.206;9.998;2023-06-14T11:31:35;25.50;14.60
1351;DHT22;669;50.206;9.998;2023-06-14T11:34:04;25.20;15.80
1351;DHT22;669;50.206;9.998;2023-06-14T11:36:35;24.50;15.50
1351;DHT22;669;50.206;9.998;2023-06-14T11:39:04;24.30;17.30
1351;DHT22;669;50.206;9.998;2023-06-14T11:41:36;24.60;17.00
1351;DHT22;669;50.206;9.998;2023-06-14T11:44:04;25.40;16.90
1351;DHT22;669;50.206;9.998;2023-06-14T11:46:32;26.10;16.60
1351;DHT22;669;50.206;9.998;2023-06-14T11:49:01;26.80;12.80
1351;DHT22;669;50.206;9.998;2023-06-14T11:51:32;27.10;14.50
1351;DHT22;669;50.206;9.998;2023-06-14T11:54:03;26.70;14.30
1351;DHT22;669;50.206;9.998;2023-06-14T11:56:31;26.00;13.60
1351;DHT22;669;50.206;9.998;2023-06-14T11:59:02;25.20;16.00
1351;DHT22;669;50.206;9.998;2023-06-14T12:01:30;24.70;16.10
1351;DHT22;669;50.206;9.998;2023-06-14T12:03:59;24.40;16.40
1351;DHT22;669;50.206;9.998;2023-06-14T12:06:29;24.20;17.10
1351;DHT22;669;50.206;9.998;2023-06-14T12:09:02;24.10;21.40
1351;DHT22;669;50.206;9.998;2023-06-14T12:11:33;24.70;15.20
1351;DHT22;669;50.206;9.998;2023-06-14T12:14:03;25.30;19.50
1351;DHT22;669;50.206;9.998;2023-06-14T12:16:33;25.10;15.50
1351;DHT22;669;50.206;9.998;2023-06-14T12:19:12;24.70;14.30
1351;DHT22;669;50.206;9.998;2023-06-14T12:21:40;24.20;15.40
1351;DHT22;669;50.206;9.998;2023-06-14T12:24:11;24.10;18.80
1351;DHT22;669;50.206;9.998;2023-06-14T12:26:41;24.30;20.00
1351;DHT22;669;50.206;9.998;2023-06-14T12:29:09;24.10;19.20
1351;DHT22;669;50.206;9.998;2023-06-14T12:31:39;24.20;20.70
1351;DHT22;669;50.206;9.998;2023-06-14T12:34:07;25.00;19.20
1351;DHT22;669;50.206;9.998;2023-06-14T12:36:35;26.00;16.70
1351;DHT22;669;50.206;9.998;2023-06-14T12:39:09;26.90;18.10
1351;DHT22;669;50.206;9.998;2023-06-14T12:41:37;27.60;15.40
1351;DHT22;669;50.206;9.998;2023-06-14T12:44:08;27.70;13.70
1351;DHT22;669;50.206;9.998;2023-06-14T12:46:36;27.30;12.50
1351;DHT22;669;50.206;9.998;2023-06-14T12:49:08;26.50;13.60
1351;DHT22;669;50.206;9.998;2023-06-14T12:51:36;25.80;13.70
1351;DHT22;669;50.206;9.998;2023-06-14T12:54:04;25.00;16.40
1351;DHT22;669;50.206;9.998;2023-06-14T12:56:33;24.50;17.00
1351;DHT22;669;50.206;9.998;2023-06-14T12:59:01;24.30;17.30
1351;DHT22;669;50.206;9.998;2023-06-14T13:01:29;24.50;18.20
1351;DHT22;669;50.206;9.998;2023-06-14T13:03:57;25.40;16.80
1351;DHT22;669;50.206;9.998;2023-06-14T13:06:25;26.50;15.80
1351;DHT22;669;50.206;9.998;2023-06-14T13:08:53;26.90;14.30
1351;DHT22;669;50.206;9.998;2023-06-14T13:11:24;26.40;14.20
1351;DHT22;669;50.206;9.998;2023-06-14T13:13:53;25.30;13.10
1351;DHT22;669;50.206;9.998;2023-06-14T13:16:21;24.50;14.60
1351;DHT22;669;50.206;9.998;2023-06-14T13:18:49;24.10;15.60
1351;DHT22;669;50.206;9.998;2023-06-14T13:21:17;23.70;15.30
1351;DHT22;669;50.206;9.998;2023-06-14T13:23:45;23.30;15.60
1351;DHT22;669;50.206;9.998;2023-06-14T13:26:13;23.10;16.50
1351;DHT22;669;50.206;9.998;2023-06-14T13:28:41;23.00;18.20
1351;DHT22;669;50.206;9.998;2023-06-14T13:31:10;22.90;16.40
1351;DHT22;669;50.206;9.998;2023-06-14T13:33:38;22.80;17.50
1351;DHT22;669;50.206;9.998;2023-06-14T13:36:07;22.90;20.70
1351;DHT22;669;50.206;9.998;2023-06-14T13:38:35;22.90;18.20
1351;DHT22;669;50.206;9.998;2023-06-14T13:41:02;22.90;18.80
1351;DHT22;669;50.206;9.998;2023-06-14T13:43:30;23.10;19.80
1351;DHT22;669;50.206;9.998;2023-06-14T13:45:58;23.20;19.20
1351;DHT22;669;50.206;9.998;2023-06-14T13:48:28;23.50;21.70
1351;DHT22;669;50.206;9.998;2023-06-14T13:50:56;24.10;17.20
1351;DHT22;669;50.206;9.998;2023-06-14T13:53:24;24.70;18.00
1351;DHT22;669;50.206;9.998;2023-06-14T13:55:52;25.10;16.10
1351;DHT22;669;50.206;9.998;2023-06-14T13:58:20;24.80;14.30
1351;DHT22;669;50.206;9.998;2023-06-14T14:00:49;24.70;16.10
1351;DHT22;669;50.206;9.998;2023-06-14T14:03:17;24.90;15.80
1351;DHT22;669;50.206;9.998;2023-06-14T14:05:47;25.30;18.30
1351;DHT22;669;50.206;9.998;2023-06-14T14:08:15;25.60;17.00
1351;DHT22;669;50.206;9.998;2023-06-14T14:10:43;25.40;14.00
1351;DHT22;669;50.206;9.998;2023-06-14T14:13:12;25.30;15.80
1351;DHT22;669;50.206;9.998;2023-06-14T14:15:40;24.80;15.30
1351;DHT22;669;50.206;9.998;2023-06-14T14:18:08;24.40;16.70
1351;DHT22;669;50.206;9.998;2023-06-14T14:20:36;23.80;15.50
1351;DHT22;669;50.206;9.998;2023-06-14T14:23:06;23.30;16.20
1351;DHT22;669;50.206;9.998;2023-06-14T14:25:34;23.00;18.00
1351;DHT22;669;50.206;9.998;2023-06-14T14:28:02;22.80;16.20
1351;DHT22;669;50.206;9.998;2023-06-14T14:30:30;22.70;16.50
1351;DHT22;669;50.206;9.998;2023-06-14T14:32:58;23.00;18.60
1351;DHT22;669;50.206;9.998;2023-06-14T14:35:26;23.30;17.60
1351;DHT22;669;50.206;9.998;2023-06-14T14:37:57;23.80;18.10
1351;DHT22;669;50.206;9.998;2023-06-14T14:40:26;24.20;17.00
1351;DHT22;669;50.206;9.998;2023-06-14T14:42:54;24.40;18.20
1351;DHT22;669;50.206;9.998;2023-06-14T14:45:22;24.40;14.20
1351;DHT22;669;50.206;9.998;2023-06-14T14:47:50;24.40;15.10
1351;DHT22;669;50.206;9.998;2023-06-14T14:50:21;24.30;16.70
1351;DHT22;669;50.206;9.998;2023-06-14T14:52:49;24.20;16.30
1351;DHT22;669;50.206;9.998;2023-06-14T14:55:17;24.00;16.40
1351;DHT22;669;50.206;9.998;2023-06-14T14:57:47;23.80;16.30
1351;DHT22;669;50.206;9.998;2023-06-14T15:00:15;23.40;16.20
1351;DHT22;669;50.206;9.998;2023-06-14T15:02:44;23.20;17.20
1351;DHT22;669;50.206;9.998;2023-06-14T15:05:13;23.00;16.40
1351;DHT22;669;50.206;9.998;2023-06-14T15:07:40;23.10;16.70
1351;DHT22;669;50.206;9.998;2023-06-14T15:10:09;23.20;16.40
1351;DHT22;669;50.206;9.998;2023-06-14T15:12:37;23.40;16.00
1351;DHT22;669;50.206;9.998;2023-06-14T15:15:07;23.50;17.30
1351;DHT22;669;50.206;9.998;2023-06-14T15:17:36;23.50;16.50
1351;DHT22;669;50.206;9.998;2023-06-14T15:20:05;23.50;16.80
1351;DHT22;669;50.206;9.998;2023-06-14T15:22:33;23.40;15.30
1351;DHT22;669;50.206;9.998;2023-06-14T15:25:01;23.40;16.80
1351;DHT22;669;50.206;9.998;2023-06-14T15:27:30;23.40;16.00
1351;DHT22;669;50.206;9.998;2023-06-14T15:29:58;23.40;15.50
1351;DHT22;669;50.206;9.998;2023-06-14T15:32:27;23.30;15.90
1351;DHT22;669;50.206;9.998;2023-06-14T15:34:55;23.30;16.30
1351;DHT22;669;50.206;9.998;2023-06-14T15:37:23;23.30;16.70
1351;DHT22;669;50.206;9.998;2023-06-14T15:39:51;23.40;16.70
1351;DHT22;669;50.206;9.998;2023-06-14T15:42:19;23.50;16.80
1351;DHT22;669;50.206;9.998;2023-06-14T15:44:47;23.40;16.70
1351;DHT22;669;50.206;9.998;2023-06-14T15:47:15;23.20;13.10
1351;DHT22;669;50.206;9.998;2023-06-14T15:49:44;22.80;14.30
1351;DHT22;669;50.206;9.998;2023-06-14T15:52:12;22.70;15.50
1351;DHT22;669;50.206;9.998;2023-06-14T15:54:40;22.60;16.20
1351;DHT22;669;50.206;9.998;2023-06-14T15:57:08;22.60;15.10
1351;DHT22;669;50.206;9.998;2023-06-14T15:59:36;22.50;15.30
1351;DHT22;669;50.206;9.998;2023-06-14T16:02:05;22.50;14.50
1351;DHT22;669;50.206;9.998;2023-06-14T16:04:33;22.40;16.00
1351;DHT22;669;50.206;9.998;2023-06-14T16:07:02;22.40;16.00
1351;DHT22;669;50.206;9.998;2023-06-14T16:09:30;22.50;16.80
1351;DHT22;669;50.206;9.998;2023-06-14T16:11:58;22.40;16.30
1351;DHT22;669;50.206;9.998;2023-06-14T16:14:26;22.40;17.90
1351;DHT22;669;50.206;9.998;2023-06-14T16:16:54;22.30;15.00
1351;DHT22;669;50.206;9.998;2023-06-14T16:19:22;22.30;16.00
1351;DHT22;669;50.206;9.998;2023-06-14T16:21:53;22.30;16.00
1351;DHT22;669;50.206;9.998;2023-06-14T16:24:22;22.30;17.10
1351;DHT22;669;50.206;9.998;2023-06-14T16:26:50;22.30;16.00
1351;DHT22;669;50.206;9.998;2023-06-14T16:29:20;22.30;16.60
1351;DHT22;669;50.206;9.998;2023-06-14T16:31:48;22.30;17.20
1351;DHT22;669;50.206;9.998;2023-06-14T16:34:16;22.30;17.40